ROMMA est une association bénévole à but non lucratif. Votre soutien est indispensable : ADHERER à ROMMA ou FAIRE un DON

St-Etienne-du-Bois - (01, Ain)

La Bresse (243 m)   Longitude: 5° 16' 47'' E   Latitude: 46° 17' 46'' N Station partenaire n°17
 

Détail journalier du     <<     >>

Température Precipitation Humidité Pression Vent Dir Rafale Dir. rafale Ensol.
Heure (°C) (mm) (%) (hPa) (km/h) (km/h) (min)
01:00 1.7096101303NNO0
02:00 1.7096101303NNO0
03:00 0.309510121NNO8NNO0
04:00 0.2096101303NNO0
05:00 0.409610131NNO6NNO0
06:00 0.2096101305NNE0
07:00 1.309710131NNE6NNE0
08:00 1.209710121SE8SE0
09:00 1.90.29710121SE10SE0
10:00 3.109710111SSO8SSO0
11:00 4.809810114SSO10S0
12:00 6.309410104SO11SSO25
13:00 7.808710097SE19SSO30
14:00 7.908310087SSO19SSO10
15:00 9.407710076SSE21S25
16:00 8.507510077SSO21SSO35
17:00 7.608210076SSO16S0
18:00 7.308110075SSO15S0
19:00 6.808510081SSO10SSO0
20:00 6.20.69210081SSO10SO0
21:00 6.00.494100906SSO0
22:00 5.8094101006OSO0
23:00 4.90.295101008OSO0
minuit 4.7095101000---0

Graphique du 11-11-2019

 

Serveur OMMA